createdAt,value
2023-06-17T00:01:18.869Z,3.40
2023-06-17T00:03:45.875Z,3.30
2023-06-17T00:06:12.571Z,2.97
2023-06-17T00:08:39.189Z,3.60
2023-06-17T00:11:05.731Z,3.40
2023-06-17T00:13:33.730Z,3.38
2023-06-17T00:16:00.377Z,3.08
2023-06-17T00:18:27.438Z,3.70
2023-06-17T00:20:54.619Z,3.03
2023-06-17T00:23:22.122Z,2.88
2023-06-17T00:25:49.891Z,2.97
2023-06-17T00:28:16.920Z,2.97
2023-06-17T00:30:46.673Z,2.87
2023-06-17T00:33:13.455Z,2.72
2023-06-17T00:35:39.981Z,2.80
2023-06-17T00:38:06.509Z,2.58
2023-06-17T00:40:33.035Z,2.75
2023-06-17T00:42:59.746Z,2.73
2023-06-17T00:45:26.321Z,3.55
2023-06-17T00:47:53.207Z,3.70
2023-06-17T00:50:20.664Z,3.22
2023-06-17T00:52:53.031Z,4.13
2023-06-17T00:55:19.760Z,5.43
2023-06-17T00:57:48.645Z,4.63
2023-06-17T01:00:16.103Z,4.07
2023-06-17T01:02:45.317Z,3.90
2023-06-17T01:05:14.082Z,3.90
2023-06-17T01:08:04.144Z,3.93
2023-06-17T01:10:39.635Z,4.15
2023-06-17T01:13:06.417Z,4.38
2023-06-17T01:15:37.669Z,3.55
2023-06-17T01:18:06.177Z,3.90
2023-06-17T01:20:33.920Z,3.40
2023-06-17T01:23:02.336Z,3.45
2023-06-17T01:25:32.803Z,3.30
2023-06-17T01:28:01.849Z,3.40
2023-06-17T01:30:29.976Z,3.55
2023-06-17T01:33:01.230Z,3.70
2023-06-17T01:35:37.564Z,3.85
2023-06-17T01:38:16.699Z,3.65
2023-06-17T01:40:45.121Z,3.83
2023-06-17T01:43:16.888Z,4.30
2023-06-17T01:45:44.061Z,4.17
2023-06-17T01:48:10.802Z,4.10
2023-06-17T01:50:37.409Z,3.92
2023-06-17T01:53:03.963Z,4.00
2023-06-17T01:55:30.561Z,4.50
2023-06-17T01:57:57.123Z,4.33
2023-06-17T02:00:23.828Z,4.22
2023-06-17T02:02:50.897Z,4.28
2023-06-17T02:05:17.469Z,4.28
2023-06-17T02:07:43.966Z,5.88
2023-06-17T02:10:10.844Z,4.90
2023-06-17T02:12:37.458Z,4.60
2023-06-17T02:15:04.333Z,4.80
2023-06-17T02:17:31.063Z,5.13
2023-06-17T02:19:57.594Z,5.40
2023-06-17T02:22:24.141Z,4.70
2023-06-17T02:24:50.794Z,3.88
2023-06-17T02:27:17.874Z,4.25
2023-06-17T02:29:45.501Z,3.83
2023-06-17T02:32:12.182Z,3.90
2023-06-17T02:34:38.739Z,3.30
2023-06-17T02:37:05.784Z,3.70
2023-06-17T02:39:32.284Z,3.85
2023-06-17T02:41:58.858Z,3.55
2023-06-17T02:44:25.364Z,3.85
2023-06-17T02:46:52.036Z,3.80
2023-06-17T02:49:19.001Z,3.85
2023-06-17T02:51:45.586Z,3.97
2023-06-17T02:54:12.639Z,4.07
2023-06-17T02:56:39.366Z,4.07
2023-06-17T02:59:08.948Z,3.60
2023-06-17T03:01:40.485Z,3.47
2023-06-17T03:04:07.342Z,3.95
2023-06-17T03:06:35.251Z,3.95
2023-06-17T03:09:04.369Z,4.22
2023-06-17T03:11:30.952Z,3.97
2023-06-17T03:13:57.519Z,4.43
2023-06-17T03:16:27.129Z,4.50
2023-06-17T03:18:53.660Z,4.45
2023-06-17T03:21:20.733Z,4.35
2023-06-17T03:23:49.610Z,4.27
2023-06-17T03:26:17.206Z,4.30
2023-06-17T03:28:43.821Z,4.43
2023-06-17T03:31:11.946Z,4.10
2023-06-17T03:33:38.582Z,4.03
2023-06-17T03:36:05.492Z,4.50
2023-06-17T03:38:31.998Z,4.03
2023-06-17T03:40:58.525Z,4.32
2023-06-17T03:43:25.020Z,4.85
2023-06-17T03:45:51.614Z,4.68
2023-06-17T03:48:18.197Z,4.50
2023-06-17T03:50:44.773Z,4.40
2023-06-17T03:53:11.592Z,4.70
2023-06-17T03:55:38.087Z,4.53
2023-06-17T03:58:04.680Z,4.20
2023-06-17T04:00:31.226Z,4.40
2023-06-17T04:02:57.933Z,4.82
2023-06-17T04:05:32.280Z,5.10
2023-06-17T04:08:00.002Z,5.00
2023-06-17T04:10:27.472Z,4.82
2023-06-17T04:12:54.133Z,5.70
2023-06-17T04:15:20.779Z,5.97
2023-06-17T04:17:47.342Z,5.65
2023-06-17T04:20:13.988Z,5.38
2023-06-17T04:22:41.990Z,5.03
2023-06-17T04:25:11.697Z,5.30
2023-06-17T04:27:39.781Z,4.60
2023-06-17T04:30:10.450Z,5.38
2023-06-17T04:32:40.075Z,5.00
2023-06-17T04:35:07.784Z,5.10
2023-06-17T04:37:35.474Z,4.90
2023-06-17T04:40:02.056Z,5.28
2023-06-17T04:42:29.043Z,5.28
2023-06-17T04:44:55.544Z,5.63
2023-06-17T04:47:22.099Z,5.07
2023-06-17T04:49:49.056Z,5.33
2023-06-17T04:52:15.604Z,4.95
2023-06-17T04:54:42.901Z,5.38
2023-06-17T04:57:09.751Z,5.22
2023-06-17T04:59:36.297Z,5.63
2023-06-17T05:02:03.100Z,5.70
2023-06-17T05:04:29.740Z,5.60
2023-06-17T05:06:56.396Z,6.20
2023-06-17T05:09:23.843Z,5.88
2023-06-17T05:11:50.842Z,6.32
2023-06-17T05:14:17.502Z,5.67
2023-06-17T05:16:44.057Z,5.72
2023-06-17T05:19:10.651Z,6.45
2023-06-17T05:21:37.158Z,5.85
2023-06-17T05:24:04.124Z,5.70
2023-06-17T05:26:30.931Z,6.00
2023-06-17T05:28:58.196Z,5.93
2023-06-17T05:31:24.805Z,6.22
2023-06-17T05:33:51.427Z,6.00
2023-06-17T05:36:17.934Z,6.57
2023-06-17T05:38:44.506Z,6.10
2023-06-17T05:41:11.048Z,6.00
2023-06-17T05:43:37.615Z,5.60
2023-06-17T05:46:04.120Z,6.55
2023-06-17T05:48:30.792Z,6.53
2023-06-17T05:50:57.405Z,5.53
2023-06-17T05:53:23.980Z,6.30
2023-06-17T05:55:50.579Z,5.70
2023-06-17T05:58:17.133Z,5.32
2023-06-17T06:00:43.763Z,5.38
2023-06-17T06:03:10.316Z,5.23
2023-06-17T06:05:37.460Z,4.35
2023-06-17T06:08:04.077Z,4.80
2023-06-17T06:10:30.827Z,4.07
2023-06-17T06:12:57.348Z,4.30
2023-06-17T06:15:24.668Z,4.30
2023-06-17T06:17:51.344Z,4.03
2023-06-17T06:20:17.962Z,3.53
2023-06-17T06:22:44.623Z,3.83
2023-06-17T06:25:11.421Z,3.88
2023-06-17T06:27:37.917Z,3.13
2023-06-17T06:30:04.802Z,3.67
2023-06-17T06:32:31.765Z,3.67
2023-06-17T06:34:58.337Z,3.30
2023-06-17T06:37:24.952Z,3.30
2023-06-17T06:39:51.444Z,3.47
2023-06-17T06:42:18.008Z,4.03
2023-06-17T06:44:44.484Z,3.30
2023-06-17T06:47:11.000Z,3.33
2023-06-17T06:49:37.581Z,3.85
2023-06-17T06:52:04.997Z,3.27
2023-06-17T06:54:31.519Z,3.42
2023-06-17T06:56:58.226Z,3.08
2023-06-17T06:59:24.797Z,2.90
2023-06-17T07:01:51.262Z,3.20
2023-06-17T07:04:17.853Z,2.83
2023-06-17T07:06:44.387Z,3.05
2023-06-17T07:09:11.007Z,3.20
2023-06-17T07:11:37.571Z,2.83
2023-06-17T07:14:04.123Z,3.00
2023-06-17T07:16:30.898Z,3.00
2023-06-17T07:18:57.649Z,2.55
2023-06-17T07:21:24.161Z,3.15
2023-06-17T07:23:51.881Z,3.03
2023-06-17T07:26:18.411Z,2.85
2023-06-17T07:28:44.968Z,2.60
2023-06-17T07:31:11.944Z,2.70
2023-06-17T07:33:38.539Z,3.13
2023-06-17T07:36:05.154Z,2.90
2023-06-17T07:38:34.052Z,3.33
2023-06-17T07:41:01.310Z,2.70
2023-06-17T07:43:27.848Z,2.92
2023-06-17T07:45:54.431Z,2.70
2023-06-17T07:48:21.237Z,2.92
2023-06-17T07:50:47.866Z,2.67
2023-06-17T07:53:14.586Z,2.70
2023-06-17T07:55:41.059Z,2.55
2023-06-17T07:58:07.787Z,2.85
2023-06-17T08:00:34.286Z,2.42
2023-06-17T08:03:01.346Z,2.90
2023-06-17T08:05:28.024Z,2.77
2023-06-17T08:07:54.709Z,2.42
2023-06-17T08:10:21.606Z,2.47
2023-06-17T08:12:49.694Z,2.60
2023-06-17T08:15:16.338Z,2.60
2023-06-17T08:17:43.360Z,2.33
2023-06-17T08:20:11.301Z,2.88
2023-06-17T08:22:38.090Z,2.50
2023-06-17T08:25:04.794Z,2.70
2023-06-17T08:27:32.370Z,3.03
2023-06-17T08:29:59.899Z,2.50
2023-06-17T08:32:26.589Z,2.70
2023-06-17T08:34:53.123Z,2.45
2023-06-17T08:37:19.635Z,2.80
2023-06-17T08:39:46.135Z,3.10
2023-06-17T08:42:12.874Z,2.93
2023-06-17T08:44:44.318Z,2.78
2023-06-17T08:47:16.150Z,2.83
2023-06-17T08:49:45.018Z,3.10
2023-06-17T08:52:14.709Z,3.30
2023-06-17T08:54:41.970Z,3.17
2023-06-17T08:57:13.800Z,3.10
2023-06-17T08:59:43.715Z,3.00
2023-06-17T09:02:11.948Z,2.72
2023-06-17T09:04:38.702Z,3.00
2023-06-17T09:07:05.781Z,3.20
2023-06-17T09:09:32.334Z,3.03
2023-06-17T09:12:03.130Z,3.45
2023-06-17T09:14:29.689Z,3.20
2023-06-17T09:16:56.301Z,3.50
2023-06-17T09:19:23.928Z,3.30
2023-06-17T09:21:50.540Z,3.22
2023-06-17T09:24:17.225Z,6.03
2023-06-17T09:26:45.226Z,3.35
2023-06-17T09:29:13.592Z,3.30
2023-06-17T09:31:59.146Z,3.10
2023-06-17T09:34:27.762Z,3.47
2023-06-17T09:37:01.355Z,3.30
2023-06-17T09:39:33.390Z,3.20
2023-06-17T09:42:10.165Z,3.05
2023-06-17T09:44:40.847Z,2.97
2023-06-17T09:47:09.383Z,3.40
2023-06-17T09:49:37.918Z,3.17
2023-06-17T09:52:10.346Z,3.28
2023-06-17T09:54:37.921Z,3.40
2023-06-17T09:57:08.692Z,3.10
2023-06-17T09:59:35.322Z,2.95
2023-06-17T10:02:01.866Z,3.10
2023-06-17T10:04:28.473Z,2.90
2023-06-17T10:06:55.369Z,3.80
2023-06-17T10:09:22.239Z,3.50
2023-06-17T10:11:52.489Z,3.08
2023-06-17T10:14:24.669Z,3.17
2023-06-17T10:16:52.255Z,3.13
2023-06-17T10:19:23.742Z,3.15
2023-06-17T10:21:53.964Z,3.50
2023-06-17T10:24:21.551Z,3.42
2023-06-17T10:26:52.245Z,3.47
2023-06-17T10:29:18.873Z,3.13
2023-06-17T10:31:45.557Z,3.17
2023-06-17T10:34:16.765Z,3.00
2023-06-17T10:36:43.584Z,3.25
2023-06-17T10:39:14.962Z,3.47
2023-06-17T10:41:41.464Z,2.95
2023-06-17T10:44:29.281Z,2.78
2023-06-17T10:46:57.468Z,2.67
2023-06-17T10:49:24.598Z,2.90
2023-06-17T10:51:58.512Z,3.08
2023-06-17T10:54:30.884Z,3.03
2023-06-17T10:56:58.199Z,3.00
2023-06-17T10:59:26.765Z,3.20
2023-06-17T11:02:01.323Z,3.15
2023-06-17T11:04:29.595Z,2.92
2023-06-17T11:06:56.514Z,3.30
2023-06-17T11:09:30.558Z,3.38
2023-06-17T11:11:58.850Z,3.20
2023-06-17T11:14:28.895Z,3.35
2023-06-17T11:16:55.719Z,3.05
2023-06-17T11:19:23.168Z,3.28
2023-06-17T11:22:04.202Z,3.38
2023-06-17T11:24:34.217Z,3.20
2023-06-17T11:27:01.721Z,3.00
2023-06-17T11:29:30.520Z,3.22
2023-06-17T11:32:01.350Z,3.20
2023-06-17T11:34:33.186Z,3.47
2023-06-17T11:37:01.941Z,3.47
2023-06-17T11:39:30.421Z,3.20
2023-06-17T11:42:04.225Z,3.30
2023-06-17T11:44:35.417Z,3.15
2023-06-17T11:47:10.116Z,3.22
2023-06-17T11:49:42.694Z,3.30
2023-06-17T11:52:13.124Z,2.95
2023-06-17T11:54:47.055Z,2.90
2023-06-17T11:57:26.301Z,2.78
2023-06-17T11:59:58.424Z,2.92
2023-06-17T12:02:27.987Z,2.80
2023-06-17T12:04:54.868Z,2.78
2023-06-17T12:07:21.833Z,3.17
2023-06-17T12:09:54.215Z,2.97
2023-06-17T12:12:28.035Z,3.40
2023-06-17T12:15:00.950Z,3.10
2023-06-17T12:17:44.871Z,3.40
2023-06-17T12:20:21.612Z,3.10
2023-06-17T12:22:50.645Z,3.17
2023-06-17T12:25:17.235Z,3.38
2023-06-17T12:27:44.526Z,3.60
2023-06-17T12:30:12.730Z,3.03
2023-06-17T12:32:41.198Z,3.20
2023-06-17T12:35:10.122Z,3.15
2023-06-17T12:37:39.543Z,3.60
2023-06-17T12:40:07.743Z,3.33
2023-06-17T12:42:34.246Z,3.20
2023-06-17T12:45:01.082Z,3.55
2023-06-17T12:47:27.801Z,3.30
2023-06-17T12:49:54.624Z,3.55
2023-06-17T12:52:21.120Z,3.50
2023-06-17T12:54:57.491Z,3.60
2023-06-17T12:57:24.006Z,3.55
2023-06-17T12:59:50.561Z,3.70
2023-06-17T13:02:17.212Z,3.13
2023-06-17T13:04:43.925Z,3.57
2023-06-17T13:07:11.309Z,3.40
2023-06-17T13:09:37.897Z,3.60
2023-06-17T13:12:05.284Z,3.90
2023-06-17T13:14:31.814Z,3.28
2023-06-17T13:16:58.522Z,3.10
2023-06-17T13:19:25.108Z,3.25
2023-06-17T13:21:51.728Z,3.50
2023-06-17T13:24:18.342Z,3.40
2023-06-17T13:26:44.986Z,3.67
2023-06-17T13:29:11.738Z,3.13
2023-06-17T13:31:38.358Z,3.47
2023-06-17T13:34:05.320Z,3.30
2023-06-17T13:36:32.968Z,3.20
2023-06-17T13:38:59.899Z,3.25
2023-06-17T13:41:31.671Z,3.50
2023-06-17T13:43:58.431Z,4.00
2023-06-17T13:46:25.081Z,3.35
2023-06-17T13:48:51.895Z,3.90
2023-06-17T13:51:19.235Z,3.33
2023-06-17T13:53:45.995Z,3.40
2023-06-17T13:56:12.912Z,3.70
2023-06-17T13:58:39.685Z,3.50
2023-06-17T14:01:06.277Z,3.38
2023-06-17T14:03:32.840Z,3.40
2023-06-17T14:05:59.612Z,3.30
2023-06-17T14:08:26.219Z,3.42
2023-06-17T14:10:52.787Z,3.30
2023-06-17T14:13:19.322Z,3.40
2023-06-17T14:15:45.978Z,3.55
2023-06-17T14:18:12.880Z,3.50
2023-06-17T14:20:40.523Z,3.65
2023-06-17T14:23:08.849Z,3.80
2023-06-17T14:25:36.077Z,3.40
2023-06-17T14:28:02.789Z,3.60
2023-06-17T14:30:29.320Z,3.70
2023-06-17T14:32:55.888Z,3.45
2023-06-17T14:35:22.473Z,3.90
2023-06-17T14:37:50.047Z,3.70
2023-06-17T14:40:17.640Z,3.72
2023-06-17T14:42:44.237Z,3.30
2023-06-17T14:45:12.733Z,3.72
2023-06-17T14:47:40.917Z,3.50
2023-06-17T14:50:09.791Z,3.40
2023-06-17T14:52:36.362Z,3.88
2023-06-17T14:55:04.162Z,3.90
2023-06-17T14:57:33.286Z,3.70
2023-06-17T15:00:00.696Z,4.25
2023-06-17T15:02:45.708Z,3.65
2023-06-17T15:05:12.407Z,3.95
2023-06-17T15:07:39.066Z,3.90
2023-06-17T15:10:06.999Z,3.67
2023-06-17T15:12:33.620Z,4.25
2023-06-17T15:15:00.349Z,3.67
2023-06-17T15:17:27.122Z,3.85
2023-06-17T15:19:53.659Z,3.67
2023-06-17T15:22:20.253Z,3.60
2023-06-17T15:24:46.747Z,3.42
2023-06-17T15:27:13.282Z,3.50
2023-06-17T15:29:40.422Z,3.60
2023-06-17T15:32:07.393Z,3.60
2023-06-17T15:34:33.937Z,3.50
2023-06-17T15:37:00.807Z,3.33
2023-06-17T15:39:32.612Z,3.53
2023-06-17T15:41:59.290Z,3.63
2023-06-17T15:44:26.012Z,3.20
2023-06-17T15:46:52.624Z,3.05
2023-06-17T15:49:20.530Z,3.60
2023-06-17T15:51:47.025Z,3.58
2023-06-17T15:54:13.979Z,3.50
2023-06-17T15:56:40.661Z,3.67
2023-06-17T15:59:07.429Z,3.35
2023-06-17T16:01:34.839Z,3.38
2023-06-17T16:04:40.925Z,3.25
2023-06-17T16:07:09.700Z,3.88
2023-06-17T16:09:38.454Z,4.40
2023-06-17T16:12:06.032Z,4.05
2023-06-17T16:14:33.587Z,4.28
2023-06-17T16:17:01.600Z,3.72
2023-06-17T16:19:28.212Z,3.72
2023-06-17T16:21:55.619Z,4.20
2023-06-17T16:24:23.349Z,4.10
2023-06-17T16:26:50.070Z,4.28
2023-06-17T16:29:16.799Z,3.88
2023-06-17T16:31:43.386Z,3.85
2023-06-17T16:34:09.950Z,4.07
2023-06-17T16:36:36.891Z,3.90
2023-06-17T16:39:04.235Z,3.53
2023-06-17T16:41:30.864Z,3.90
2023-06-17T16:43:57.412Z,4.45
2023-06-17T16:46:24.035Z,4.00
2023-06-17T16:48:50.698Z,4.00
2023-06-17T16:51:17.220Z,4.10
2023-06-17T16:53:43.717Z,3.63
2023-06-17T16:56:10.725Z,3.90
2023-06-17T16:58:37.622Z,3.50
2023-06-17T17:01:04.188Z,3.58
2023-06-17T17:03:30.727Z,3.63
2023-06-17T17:05:57.483Z,3.70
2023-06-17T17:08:25.198Z,3.67
2023-06-17T17:10:51.720Z,3.73
2023-06-17T17:13:18.306Z,3.70
2023-06-17T17:15:44.850Z,4.80
2023-06-17T17:18:11.455Z,3.90
2023-06-17T17:20:37.990Z,4.03
2023-06-17T17:23:04.708Z,3.80
2023-06-17T17:25:31.632Z,3.72
2023-06-17T17:27:58.188Z,4.30
2023-06-17T17:30:24.838Z,4.00
2023-06-17T17:32:51.810Z,4.13
2023-06-17T17:35:18.955Z,4.20
2023-06-17T17:37:45.516Z,4.30
2023-06-17T17:40:12.599Z,3.85
2023-06-17T17:42:39.458Z,3.70
2023-06-17T17:45:06.793Z,3.92
2023-06-17T17:47:33.454Z,4.03
2023-06-17T17:49:59.999Z,3.90
2023-06-17T17:52:26.777Z,4.18
2023-06-17T17:55:01.587Z,3.83
2023-06-17T17:57:29.171Z,3.78
2023-06-17T17:59:55.767Z,4.40
2023-06-17T18:02:22.557Z,3.65
2023-06-17T18:04:49.199Z,3.92
2023-06-17T18:07:15.788Z,3.58
2023-06-17T18:09:42.371Z,4.18
2023-06-17T18:12:09.026Z,4.90
2023-06-17T18:14:36.007Z,4.20
2023-06-17T18:17:03.304Z,4.03
2023-06-17T18:19:29.941Z,4.22
2023-06-17T18:21:56.613Z,4.07
2023-06-17T18:24:23.214Z,4.10
2023-06-17T18:26:49.768Z,4.20
2023-06-17T18:29:16.281Z,4.20
2023-06-17T18:31:42.872Z,4.15
2023-06-17T18:34:09.419Z,4.20
2023-06-17T18:36:35.958Z,3.50
2023-06-17T18:39:02.559Z,4.07
2023-06-17T18:41:29.066Z,3.70
2023-06-17T18:43:55.599Z,3.95
2023-06-17T18:46:22.576Z,4.10
2023-06-17T18:48:50.895Z,3.93
2023-06-17T18:51:17.434Z,4.03
2023-06-17T18:53:44.113Z,4.22
2023-06-17T18:56:11.175Z,4.03
2023-06-17T18:58:37.753Z,4.15
2023-06-17T19:01:04.536Z,4.60
2023-06-17T19:03:31.164Z,4.20
2023-06-17T19:05:57.939Z,4.20
2023-06-17T19:08:24.503Z,3.78
2023-06-17T19:10:51.583Z,4.47
2023-06-17T19:13:18.136Z,3.80
2023-06-17T19:15:44.640Z,4.13
2023-06-17T19:18:11.142Z,4.43
2023-06-17T19:20:37.708Z,4.10
2023-06-17T19:23:04.294Z,4.13
2023-06-17T19:25:30.792Z,4.30
2023-06-17T19:27:57.330Z,3.97
2023-06-17T19:30:24.158Z,3.58
2023-06-17T19:32:51.271Z,4.00
2023-06-17T19:35:17.843Z,4.45
2023-06-17T19:37:44.423Z,4.43
2023-06-17T19:40:11.762Z,3.90
2023-06-17T19:42:38.241Z,4.47
2023-06-17T19:45:05.486Z,4.32
2023-06-17T19:47:32.551Z,4.28
2023-06-17T19:50:00.447Z,4.27
2023-06-17T19:52:27.146Z,4.65
2023-06-17T19:54:54.251Z,4.18
2023-06-17T19:57:20.928Z,4.55
2023-06-17T19:59:47.731Z,4.20
2023-06-17T20:02:15.286Z,4.40
2023-06-17T20:04:41.843Z,4.53
2023-06-17T20:07:08.385Z,4.57
2023-06-17T20:09:34.872Z,4.75
2023-06-17T20:12:01.333Z,4.72
2023-06-17T20:14:28.252Z,4.43
2023-06-17T20:16:54.789Z,4.10
2023-06-17T20:19:21.313Z,4.70
2023-06-17T20:21:47.826Z,4.40
2023-06-17T20:24:14.468Z,5.20
2023-06-17T20:26:41.147Z,4.90
2023-06-17T20:29:07.722Z,4.60
2023-06-17T20:31:34.227Z,4.65
2023-06-17T20:34:00.758Z,4.78
2023-06-17T20:36:27.596Z,4.72
2023-06-17T20:38:54.103Z,5.07
2023-06-17T20:41:20.600Z,4.45
2023-06-17T20:43:47.164Z,4.72
2023-06-17T20:46:13.851Z,4.85
2023-06-17T20:48:40.434Z,5.00
2023-06-17T20:51:09.658Z,5.23
2023-06-17T20:53:36.170Z,5.15
2023-06-17T20:56:02.813Z,5.15
2023-06-17T20:58:29.325Z,5.00
2023-06-17T21:00:56.061Z,5.45
2023-06-17T21:03:22.707Z,4.57
2023-06-17T21:05:49.349Z,4.78
2023-06-17T21:08:16.190Z,5.10
2023-06-17T21:10:42.716Z,5.82
2023-06-17T21:13:09.270Z,5.50
2023-06-17T21:15:36.094Z,4.63
2023-06-17T21:18:02.766Z,4.88
2023-06-17T21:20:29.284Z,5.47
2023-06-17T21:22:56.359Z,5.07
2023-06-17T21:25:23.081Z,5.50
2023-06-17T21:27:49.642Z,5.33
2023-06-17T21:30:16.272Z,5.18
2023-06-17T21:32:42.951Z,5.03
2023-06-17T21:35:09.761Z,5.07
2023-06-17T21:37:36.378Z,5.68
2023-06-17T21:40:02.929Z,4.70
2023-06-17T21:42:29.476Z,5.60
2023-06-17T21:44:56.000Z,5.22
2023-06-17T21:47:22.630Z,5.15
2023-06-17T21:49:49.243Z,5.18
2023-06-17T21:52:15.780Z,4.90
2023-06-17T21:54:42.293Z,5.30
2023-06-17T21:57:09.054Z,5.55
2023-06-17T21:59:36.038Z,5.28
2023-06-17T22:02:02.705Z,5.05
2023-06-17T22:04:29.252Z,5.07
2023-06-17T22:06:56.963Z,5.55
2023-06-17T22:09:23.522Z,4.80
2023-06-17T22:11:50.596Z,5.28
2023-06-17T22:14:17.091Z,4.78
2023-06-17T22:16:43.867Z,5.40
2023-06-17T22:19:10.483Z,5.47
2023-06-17T22:21:37.123Z,5.50
2023-06-17T22:24:03.875Z,5.57
2023-06-17T22:26:30.751Z,6.00
2023-06-17T22:28:57.450Z,6.30
2023-06-17T22:31:23.951Z,5.93
2023-06-17T22:33:50.539Z,5.57
2023-06-17T22:36:17.181Z,5.85
2023-06-17T22:38:43.705Z,5.25
2023-06-17T22:41:10.302Z,5.70
2023-06-17T22:43:36.814Z,5.20
2023-06-17T22:46:04.047Z,5.00
2023-06-17T22:48:30.612Z,5.32
2023-06-17T22:50:57.391Z,5.57
2023-06-17T22:53:23.913Z,4.80
2023-06-17T22:55:50.536Z,4.80
2023-06-17T22:58:17.069Z,5.15
2023-06-17T23:00:43.860Z,5.20
2023-06-17T23:03:10.771Z,5.53
2023-06-17T23:05:37.565Z,4.90
2023-06-17T23:08:07.084Z,5.68
2023-06-17T23:10:33.631Z,5.40
2023-06-17T23:13:00.467Z,5.60
2023-06-17T23:15:27.035Z,5.68
2023-06-17T23:17:53.553Z,5.13
2023-06-17T23:20:20.555Z,5.05
2023-06-17T23:22:47.263Z,5.38
2023-06-17T23:25:16.866Z,5.43
2023-06-17T23:27:44.448Z,5.20
2023-06-17T23:30:12.711Z,4.97
2023-06-17T23:32:39.261Z,4.85
2023-06-17T23:35:06.045Z,4.93
2023-06-17T23:37:32.804Z,4.82
2023-06-17T23:39:59.315Z,5.13
2023-06-17T23:42:25.908Z,4.90
2023-06-17T23:44:53.196Z,4.55
2023-06-17T23:47:19.932Z,4.90
2023-06-17T23:49:46.636Z,5.40
2023-06-17T23:52:13.819Z,5.95
2023-06-17T23:54:41.405Z,6.03
2023-06-17T23:57:08.306Z,5.25
2023-06-17T23:59:34.937Z,5.60
